Time;durP1;ratioP1;P1;durP2;ratioP2;P2;SDS_P1;SDS_P2;PMS_P1;PMS_P2;Temp;Humidity;BMP_temperature;BMP_pressure;BME280_temperature;BME280_humidity;BME280_pressure;Samples;Min_cycle;Max_cycle;Signal;HPM_P1;HPM_P2
2023/01/25 00:00:52;;;;;;;;;;;2.40;99.90;;;;;;5035124;28;19935;-74
2023/01/25 00:03:18;;;;;;;;;;;2.40;99.90;;;;;;5037813;28;19928;-76
2023/01/25 00:05:46;;;;;;;;;;;2.40;99.90;;;;;;5044787;28;19931;-75
2023/01/25 00:08:13;;;;;;;;;;;2.30;99.90;;;;;;5042888;28;20382;-75
2023/01/25 00:10:40;;;;;;;;;;;2.30;99.90;;;;;;5040843;28;19940;-75
2023/01/25 00:13:06;;;;;;;;;;;2.30;99.90;;;;;;5041504;28;19929;-75
2023/01/25 00:15:33;;;;;;;;;;;2.30;99.90;;;;;;5046617;28;19925;-75
2023/01/25 00:18:00;;;;;;;;;;;2.30;99.90;;;;;;5034796;28;20441;-75
2023/01/25 00:20:26;;;;;;;;;;;2.30;99.90;;;;;;5032839;28;20409;-75
2023/01/25 00:22:54;;;;;;;;;;;2.40;99.90;;;;;;5031270;28;19925;-75
2023/01/25 00:25:21;;;;;;;;;;;2.40;99.90;;;;;;5032262;28;20274;-75
2023/01/25 00:27:48;;;;;;;;;;;2.30;99.90;;;;;;5036012;28;19932;-74
2023/01/25 00:30:16;;;;;;;;;;;2.30;99.90;;;;;;5031021;28;19936;-75
2023/01/25 00:32:52;;;;;;;;;;;2.30;99.90;;;;;;5023957;28;20282;-78
2023/01/25 00:35:19;;;;;;;;;;;2.30;99.90;;;;;;5027938;28;19929;-77
2023/01/25 00:37:48;;;;;;;;;;;2.30;99.90;;;;;;5026935;28;19929;-78
2023/01/25 00:40:17;;;;;;;;;;;2.30;99.90;;;;;;5031221;28;19933;-79
2023/01/25 00:42:43;;;;;;;;;;;2.20;99.90;;;;;;5031695;28;19925;-77
2023/01/25 00:45:11;;;;;;;;;;;2.20;99.90;;;;;;5033284;28;19929;-77
2023/01/25 00:47:38;;;;;;;;;;;2.20;99.90;;;;;;5051709;28;19912;-76
2023/01/25 00:50:06;;;;;;;;;;;2.10;99.90;;;;;;5056421;28;19929;-77
2023/01/25 00:52:33;;;;;;;;;;;2.40;99.90;;;;;;5055873;28;19933;-78
2023/01/25 00:55:00;;;;;;;;;;;2.30;99.90;;;;;;5053094;28;19933;-79
2023/01/25 00:57:28;;;;;;;;;;;2.30;99.90;;;;;;5049559;28;19925;-76
2023/01/25 00:59:54;;;;;;;;;;;2.30;99.90;;;;;;5041712;28;20404;-76
2023/01/25 01:02:21;;;;;;;;;;;2.40;99.90;;;;;;5029348;28;19932;-77
2023/01/25 01:04:48;;;;;;;;;;;2.40;99.90;;;;;;5029674;28;19929;-76
2023/01/25 01:07:15;;;;;;;;;;;2.50;99.90;;;;;;5037541;28;20417;-76
2023/01/25 01:09:41;;;;;;;;;;;2.50;99.90;;;;;;5035300;28;19929;-77
2023/01/25 01:12:08;;;;;;;;;;;3.60;99.90;;;;;;5035814;28;20012;-76
2023/01/25 01:14:36;;;;;;;;;;;2.60;99.90;;;;;;5034340;28;20019;-77
2023/01/25 01:17:03;;;;;;;;;;;2.50;99.90;;;;;;5034017;28;19989;-77
2023/01/25 01:19:30;;;;;;;;;;;2.50;99.90;;;;;;5029688;28;20309;-80
2023/01/25 01:21:57;;;;;;;;;;;2.50;99.90;;;;;;5028319;28;19929;-77
2023/01/25 01:24:24;;;;;;;;;;;2.50;99.90;;;;;;5025218;28;20224;-76
2023/01/25 01:26:50;;;;;;;;;;;2.50;99.90;;;;;;5035762;28;19925;-76
2023/01/25 01:29:17;;;;;;;;;;;2.50;99.90;;;;;;5031264;28;19936;-76
2023/01/25 01:31:45;;;;;;;;;;;2.50;99.90;;;;;;5026268;28;20404;-78
2023/01/25 01:34:18;;;;;;;;;;;2.40;99.90;;;;;;5024516;28;19936;-76
2023/01/25 01:36:45;;;;;;;;;;;2.40;99.90;;;;;;5024733;28;20019;-76
2023/01/25 01:39:12;;;;;;;;;;;2.40;99.90;;;;;;5020876;28;19929;-77
2023/01/25 01:41:39;;;;;;;;;;;2.40;99.90;;;;;;5032370;28;20800;-77
2023/01/25 01:44:10;;;;;;;;;;;2.40;99.90;;;;;;5029279;28;20004;-76
2023/01/25 01:46:38;;;;;;;;;;;2.30;99.90;;;;;;5045072;28;19932;-75
2023/01/25 01:49:13;;;;;;;;;;;2.30;99.90;;;;;;5037462;28;20024;-75
2023/01/25 01:51:42;;;;;;;;;;;2.30;99.90;;;;;;5029945;28;19975;-76
2023/01/25 01:54:16;;;;;;;;;;;2.30;99.90;;;;;;5033082;28;19933;-77
2023/01/25 01:56:46;;;;;;;;;;;2.30;99.90;;;;;;5036379;28;19925;-77
2023/01/25 01:59:15;;;;;;;;;;;2.40;99.90;;;;;;5027820;28;20144;-76
2023/01/25 02:01:41;;;;;;;;;;;2.40;99.90;;;;;;5034501;28;19929;-78
2023/01/25 02:04:09;;;;;;;;;;;2.40;99.90;;;;;;5034189;28;19983;-76
2023/01/25 02:06:41;;;;;;;;;;;2.40;99.90;;;;;;5032420;28;19987;-75
2023/01/25 02:09:08;;;;;;;;;;;2.40;99.90;;;;;;5033944;28;20313;-76
2023/01/25 02:11:35;;;;;;;;;;;2.40;99.90;;;;;;5029340;28;19929;-77
2023/01/25 02:14:02;;;;;;;;;;;2.40;99.90;;;;;;5043288;28;19928;-76
2023/01/25 02:16:29;;;;;;;;;;;2.40;99.90;;;;;;5034743;28;20428;-77
2023/01/25 02:18:57;;;;;;;;;;;2.40;99.90;;;;;;5041815;28;19948;-77
2023/01/25 02:21:24;;;;;;;;;;;2.40;99.90;;;;;;5037089;28;19933;-75
2023/01/25 02:23:54;;;;;;;;;;;2.50;99.90;;;;;;5045642;28;19941;-76
2023/01/25 02:26:23;;;;;;;;;;;2.50;99.90;;;;;;5031436;28;20027;-77
2023/01/25 02:28:53;;;;;;;;;;;2.40;99.90;;;;;;5022634;28;19925;-76
2023/01/25 02:31:23;;;;;;;;;;;2.30;99.90;;;;;;5028767;28;19925;-76
2023/01/25 02:33:50;;;;;;;;;;;2.30;99.90;;;;;;5033234;28;19929;-76
2023/01/25 02:36:20;;;;;;;;;;;2.20;99.90;;;;;;5033368;28;20405;-77
2023/01/25 02:38:50;;;;;;;;;;;2.20;99.90;;;;;;5047948;28;19925;-76
2023/01/25 02:41:20;;;;;;;;;;;2.20;99.90;;;;;;5039133;28;19925;-79
2023/01/25 02:43:49;;;;;;;;;;;2.30;99.90;;;;;;5053575;28;19925;-77
2023/01/25 02:46:21;;;;;;;;;;;2.30;99.90;;;;;;5044715;28;19968;-76
2023/01/25 02:48:48;;;;;;;;;;;2.40;99.90;;;;;;5020614;28;20281;-76
2023/01/25 02:51:15;;;;;;;;;;;2.40;99.90;;;;;;5032238;28;19929;-76
2023/01/25 02:53:41;;;;;;;;;;;2.50;99.90;;;;;;5035112;28;20313;-79
2023/01/25 02:56:08;;;;;;;;;;;2.50;99.90;;;;;;5033097;28;20419;-76
2023/01/25 02:58:35;;;;;;;;;;;2.50;99.90;;;;;;5025445;28;19929;-74
2023/01/25 03:01:03;;;;;;;;;;;2.70;99.90;;;;;;5020700;28;19936;-75
2023/01/25 03:03:31;;;;;;;;;;;2.50;99.90;;;;;;5034732;28;19952;-74
2023/01/25 03:05:58;;;;;;;;;;;2.50;99.90;;;;;;5032989;28;19956;-75
2023/01/25 03:08:25;;;;;;;;;;;2.60;99.90;;;;;;5045184;28;19929;-77
2023/01/25 03:10:56;;;;;;;;;;;2.60;99.90;;;;;;5046839;28;19929;-75
2023/01/25 03:13:22;;;;;;;;;;;2.60;99.90;;;;;;5037408;28;19996;-76
2023/01/25 03:15:49;;;;;;;;;;;2.60;99.90;;;;;;5037263;28;19971;-76
2023/01/25 03:18:18;;;;;;;;;;;2.50;99.90;;;;;;5027374;28;19929;-78
2023/01/25 03:20:47;;;;;;;;;;;2.50;99.90;;;;;;5043972;28;20008;-78
2023/01/25 03:23:13;;;;;;;;;;;3.80;99.90;;;;;;5031568;28;19925;-77
2023/01/25 03:25:40;;;;;;;;;;;2.50;99.90;;;;;;5049634;28;20390;-77
2023/01/25 03:28:13;;;;;;;;;;;2.30;99.90;;;;;;5022914;28;19931;-76
2023/01/25 03:30:39;;;;;;;;;;;2.30;99.90;;;;;;5033288;28;19955;-77
2023/01/25 03:33:08;;;;;;;;;;;4.10;99.90;;;;;;5031219;28;19939;-75
2023/01/25 03:35:36;;;;;;;;;;;2.30;99.90;;;;;;5029097;28;19933;-75
2023/01/25 03:38:04;;;;;;;;;;;2.30;99.90;;;;;;5037293;28;19935;-75
2023/01/25 03:40:31;;;;;;;;;;;2.30;99.90;;;;;;5047696;28;19935;-75
2023/01/25 03:42:58;;;;;;;;;;;2.20;99.90;;;;;;5042234;28;19992;-75
2023/01/25 03:45:25;;;;;;;;;;;2.20;99.90;;;;;;5036931;28;19928;-75
2023/01/25 03:47:51;;;;;;;;;;;2.20;99.90;;;;;;5031353;28;19937;-74
2023/01/25 03:50:19;;;;;;;;;;;2.20;99.90;;;;;;5033814;28;19926;-74
2023/01/25 03:52:51;;;;;;;;;;;2.20;99.90;;;;;;5033401;28;20318;-76
2023/01/25 03:55:18;;;;;;;;;;;2.30;99.90;;;;;;5042955;28;19993;-75
2023/01/25 03:57:47;;;;;;;;;;;3.90;99.90;;;;;;5046330;28;20353;-75
2023/01/25 04:00:15;;;;;;;;;;;2.30;99.90;;;;;;5029677;28;20285;-75
2023/01/25 04:02:42;;;;;;;;;;;2.30;99.90;;;;;;5034799;28;20439;-75
2023/01/25 04:05:11;;;;;;;;;;;2.30;99.90;;;;;;5048418;28;19947;-76
2023/01/25 04:07:39;;;;;;;;;;;2.30;99.90;;;;;;5031408;28;20015;-75
2023/01/25 04:10:09;;;;;;;;;;;2.30;99.90;;;;;;5039952;28;19952;-76
2023/01/25 04:12:39;;;;;;;;;;;2.30;99.90;;;;;;5047284;28;19938;-75
2023/01/25 04:15:06;;;;;;;;;;;3.80;99.90;;;;;;5029336;28;19936;-75
2023/01/25 04:17:33;;;;;;;;;;;2.30;99.90;;;;;;5033112;28;19933;-75
2023/01/25 04:20:03;;;;;;;;;;;2.40;99.90;;;;;;5028195;28;19929;-76
2023/01/25 04:22:35;;;;;;;;;;;2.40;99.90;;;;;;5028079;28;20230;-76
2023/01/25 04:25:04;;;;;;;;;;;2.40;99.90;;;;;;5030417;28;19929;-76
2023/01/25 04:27:33;;;;;;;;;;;2.40;99.90;;;;;;5029641;28;19944;-75
2023/01/25 04:30:06;;;;;;;;;;;2.40;99.90;;;;;;5030659;28;20069;-75
2023/01/25 04:32:35;;;;;;;;;;;2.40;99.90;;;;;;5031797;28;19951;-74
2023/01/25 04:35:04;;;;;;;;;;;2.40;99.90;;;;;;5030212;28;20218;-75
2023/01/25 04:37:31;;;;;;;;;;;2.40;99.90;;;;;;5032335;28;19925;-74
2023/01/25 04:39:59;;;;;;;;;;;2.50;99.90;;;;;;5029402;28;20417;-75
2023/01/25 04:42:30;;;;;;;;;;;2.50;99.90;;;;;;5038345;28;19929;-75
2023/01/25 04:44:58;;;;;;;;;;;2.50;99.90;;;;;;5052966;28;19925;-76
2023/01/25 04:47:26;;;;;;;;;;;2.50;99.90;;;;;;5043879;28;20027;-75
2023/01/25 04:49:53;;;;;;;;;;;2.40;99.90;;;;;;5033223;28;19939;-77
2023/01/25 04:52:24;;;;;;;;;;;2.40;99.90;;;;;;5039497;28;20054;-76
2023/01/25 04:54:51;;;;;;;;;;;2.50;99.90;;;;;;5039998;28;19925;-76
2023/01/25 04:57:18;;;;;;;;;;;2.40;99.90;;;;;;5035851;28;20033;-76
2023/01/25 04:59:49;;;;;;;;;;;2.40;99.90;;;;;;5051164;28;19929;-76
2023/01/25 05:02:18;;;;;;;;;;;2.40;99.90;;;;;;5053248;28;19929;-76
2023/01/25 05:04:44;;;;;;;;;;;2.40;99.90;;;;;;5037862;28;20048;-76
2023/01/25 05:07:12;;;;;;;;;;;2.40;99.90;;;;;;5037147;28;20019;-75
2023/01/25 05:09:39;;;;;;;;;;;2.40;99.90;;;;;;5030485;28;20063;-76
2023/01/25 05:12:10;;;;;;;;;;;2.40;99.90;;;;;;5029107;28;19925;-75
2023/01/25 05:14:49;;;;;;;;;;;2.40;99.90;;;;;;5029157;28;19940;-76
2023/01/25 05:17:15;;;;;;;;;;;2.30;99.90;;;;;;5030086;28;19994;-75
2023/01/25 05:19:44;;;;;;;;;;;2.30;99.90;;;;;;5035486;28;19932;-75
2023/01/25 05:22:15;;;;;;;;;;;2.40;99.90;;;;;;5029628;28;19929;-75
2023/01/25 05:24:45;;;;;;;;;;;2.40;99.90;;;;;;5036845;28;20593;-75
2023/01/25 05:27:13;;;;;;;;;;;2.40;99.90;;;;;;5029747;28;19929;-75
2023/01/25 05:30:00;;;;;;;;;;;2.40;99.90;;;;;;5048107;28;19944;-75
2023/01/25 05:32:40;;;;;;;;;;;2.50;99.90;;;;;;5043811;28;20037;-75
2023/01/25 05:35:09;;;;;;;;;;;2.50;99.90;;;;;;5040029;28;19929;-75
2023/01/25 05:37:36;;;;;;;;;;;3.40;99.90;;;;;;5027459;28;19933;-75
2023/01/25 05:40:08;;;;;;;;;;;2.50;99.90;;;;;;5029043;28;19975;-75
2023/01/25 05:42:37;;;;;;;;;;;2.50;99.90;;;;;;5051148;28;20416;-75
2023/01/25 05:45:08;;;;;;;;;;;2.50;99.90;;;;;;5028853;28;19925;-75
2023/01/25 05:47:36;;;;;;;;;;;2.50;99.90;;;;;;5032643;28;20394;-75
2023/01/25 05:50:03;;;;;;;;;;;2.60;99.90;;;;;;5026789;28;20011;-75
2023/01/25 05:52:46;;;;;;;;;;;2.60;99.90;;;;;;5040829;28;20191;-74
2023/01/25 05:55:13;;;;;;;;;;;2.60;99.90;;;;;;5040807;28;20473;-74
2023/01/25 05:57:40;;;;;;;;;;;2.60;99.90;;;;;;5029149;28;19929;-74
2023/01/25 06:00:07;;;;;;;;;;;2.70;99.90;;;;;;5024943;28;19936;-74
2023/01/25 06:02:39;;;;;;;;;;;2.70;99.90;;;;;;5027728;28;20035;-76
2023/01/25 06:05:07;;;;;;;;;;;2.80;99.90;;;;;;5026593;28;20401;-75
2023/01/25 06:07:35;;;;;;;;;;;2.80;99.90;;;;;;5050008;28;19935;-75
2023/01/25 06:10:03;;;;;;;;;;;2.80;99.90;;;;;;5038196;28;19933;-75
2023/01/25 06:12:30;;;;;;;;;;;2.70;99.90;;;;;;5044435;28;19935;-75
2023/01/25 06:14:57;;;;;;;;;;;2.80;99.90;;;;;;5027734;28;19936;-75
2023/01/25 06:17:24;;;;;;;;;;;2.80;99.90;;;;;;5032505;28;19951;-75
2023/01/25 06:20:17;;;;;;;;;;;2.70;99.90;;;;;;5024289;28;19925;-75
2023/01/25 06:22:56;;;;;;;;;;;2.70;99.90;;;;;;5045173;28;19928;-75
2023/01/25 06:25:25;;;;;;;;;;;2.80;99.90;;;;;;5040038;28;20217;-75
2023/01/25 06:27:54;;;;;;;;;;;2.80;99.90;;;;;;5031034;28;19955;-75
2023/01/25 06:30:21;;;;;;;;;;;2.80;99.90;;;;;;5028996;28;20395;-75
2023/01/25 06:32:49;;;;;;;;;;;2.70;99.90;;;;;;5027908;28;19936;-76
2023/01/25 06:35:15;;;;;;;;;;;2.80;99.90;;;;;;5029323;28;20436;-76
2023/01/25 06:37:42;;;;;;;;;;;2.70;99.90;;;;;;5035844;28;20456;-75
2023/01/25 06:40:10;;;;;;;;;;;2.80;99.90;;;;;;5031001;28;19932;-75
2023/01/25 06:42:38;;;;;;;;;;;2.80;99.90;;;;;;5028808;28;20314;-75
2023/01/25 06:45:05;;;;;;;;;;;2.80;99.90;;;;;;5036089;28;19932;-76
2023/01/25 06:47:32;;;;;;;;;;;2.80;99.90;;;;;;5031652;28;19933;-75
2023/01/25 06:49:58;;;;;;;;;;;2.90;99.90;;;;;;5029676;28;19936;-76
2023/01/25 06:52:25;;;;;;;;;;;2.90;99.90;;;;;;5028658;28;19925;-75
2023/01/25 06:54:52;;;;;;;;;;;2.90;99.90;;;;;;5037680;28;20192;-76
2023/01/25 06:57:18;;;;;;;;;;;2.90;99.90;;;;;;5035402;28;20491;-75
2023/01/25 06:59:46;;;;;;;;;;;2.90;99.90;;;;;;5028198;28;19929;-76
2023/01/25 07:02:14;;;;;;;;;;;2.90;99.90;;;;;;5031427;28;19925;-75
2023/01/25 07:04:41;;;;;;;;;;;2.90;99.90;;;;;;5031455;28;19929;-76
2023/01/25 07:07:08;;;;;;;;;;;2.90;99.90;;;;;;5033771;28;19936;-75
2023/01/25 07:09:35;;;;;;;;;;;2.90;99.90;;;;;;5026469;28;20416;-75
2023/01/25 07:12:03;;;;;;;;;;;4.00;99.90;;;;;;5031669;28;19929;-75
2023/01/25 07:14:30;;;;;;;;;;;2.80;99.90;;;;;;5028975;28;19940;-75
2023/01/25 07:16:58;;;;;;;;;;;2.70;99.90;;;;;;5032560;28;19952;-75
2023/01/25 07:19:25;;;;;;;;;;;2.80;99.90;;;;;;5034620;28;19929;-75
2023/01/25 07:21:52;;;;;;;;;;;2.80;99.90;;;;;;5025491;28;19936;-76
2023/01/25 07:24:19;;;;;;;;;;;2.80;99.90;;;;;;5032419;28;19932;-75
2023/01/25 07:26:46;;;;;;;;;;;2.90;99.90;;;;;;5033441;28;19929;-75
2023/01/25 07:29:13;;;;;;;;;;;2.90;99.90;;;;;;5586681;22;20246;-74
2023/01/25 07:31:40;;;;;;;;;;;2.90;99.90;;;;;;5048393;28;19925;-75
2023/01/25 07:34:10;;;;;;;;;;;2.90;99.90;;;;;;5044961;28;19929;-74
2023/01/25 07:36:37;;;;;;;;;;;2.80;99.90;;;;;;5043971;28;20405;-74
2023/01/25 07:39:04;;;;;;;;;;;2.80;99.90;;;;;;5045394;28;19933;-75
2023/01/25 07:41:31;;;;;;;;;;;2.90;99.90;;;;;;5049171;28;20448;-75
2023/01/25 07:43:58;;;;;;;;;;;2.90;99.90;;;;;;5076236;22;20355;-79
2023/01/25 07:46:46;;;;;;;;;;;3.00;99.90;;;;;;5069580;28;19929;-80
2023/01/25 07:49:15;;;;;;;;;;;3.00;99.90;;;;;;5082262;28;19928;-80
2023/01/25 07:51:42;;;;;;;;;;;2.00;99.90;;;;;;5057845;28;19932;-80
2023/01/25 07:54:10;;;;;;;;;;;3.00;99.90;;;;;;5061864;28;19920;-80
2023/01/25 07:56:39;;;;;;;;;;;3.10;99.90;;;;;;5071569;28;19978;-80
2023/01/25 07:59:07;;;;;;;;;;;3.10;99.90;;;;;;5071673;28;20023;-78
2023/01/25 08:01:35;;;;;;;;;;;3.10;99.90;;;;;;5086421;28;19933;-80
2023/01/25 08:04:03;;;;;;;;;;;3.10;99.90;;;;;;5072627;28;20312;-79
2023/01/25 08:06:34;;;;;;;;;;;3.00;99.90;;;;;;5053053;28;20323;-80
2023/01/25 08:09:02;;;;;;;;;;;3.00;99.90;;;;;;5050181;28;19931;-79
2023/01/25 08:11:30;;;;;;;;;;;3.00;99.90;;;;;;5056747;28;19932;-79
2023/01/25 08:14:00;;;;;;;;;;;3.00;99.90;;;;;;5070564;28;19933;-79
2023/01/25 08:16:27;;;;;;;;;;;3.10;99.90;;;;;;5069785;28;19946;-80
2023/01/25 08:18:56;;;;;;;;;;;3.10;99.90;;;;;;5069834;28;19924;-80
2023/01/25 08:21:24;;;;;;;;;;;3.10;99.90;;;;;;5058572;28;19929;-80
2023/01/25 08:23:52;;;;;;;;;;;3.10;99.90;;;;;;5049062;28;19936;-80
2023/01/25 08:26:19;;;;;;;;;;;3.20;99.90;;;;;;5058002;28;20418;-80
2023/01/25 08:28:46;;;;;;;;;;;3.10;99.90;;;;;;5054537;28;19978;-80
2023/01/25 08:31:15;;;;;;;;;;;3.20;99.90;;;;;;5071999;28;19928;-80
2023/01/25 08:33:44;;;;;;;;;;;3.20;99.90;;;;;;5075702;28;20476;-79
2023/01/25 08:36:12;;;;;;;;;;;3.20;99.90;;;;;;5075905;28;19925;-80
2023/01/25 08:38:39;;;;;;;;;;;3.20;99.90;;;;;;5067571;28;19936;-80
2023/01/25 08:41:08;;;;;;;;;;;3.20;99.90;;;;;;5090809;28;19924;-80
2023/01/25 08:43:35;;;;;;;;;;;3.20;99.90;;;;;;5091183;28;19951;-80
2023/01/25 08:46:03;;;;;;;;;;;3.10;99.90;;;;;;5075081;28;19932;-80
2023/01/25 08:48:29;;;;;;;;;;;3.10;99.90;;;;;;5083453;28;19924;-80
2023/01/25 08:50:57;;;;;;;;;;;3.10;99.90;;;;;;5074701;28;19974;-80
2023/01/25 08:53:24;;;;;;;;;;;3.10;99.90;;;;;;5070931;28;19929;-80
2023/01/25 08:55:51;;;;;;;;;;;3.10;99.90;;;;;;5053611;28;19929;-80
2023/01/25 08:58:21;;;;;;;;;;;3.10;99.90;;;;;;5069054;28;19933;-80
2023/01/25 09:00:50;;;;;;;;;;;3.10;99.90;;;;;;5063965;28;19925;-80
2023/01/25 09:03:17;;;;;;;;;;;3.10;99.90;;;;;;5071993;28;19928;-80
2023/01/25 09:05:44;;;;;;;;;;;3.10;99.90;;;;;;5075743;28;19982;-80
2023/01/25 09:08:11;;;;;;;;;;;3.20;99.90;;;;;;5073534;28;19998;-80
2023/01/25 09:10:38;;;;;;;;;;;3.20;99.90;;;;;;5064090;28;20011;-80
2023/01/25 09:13:05;;;;;;;;;;;3.30;99.90;;;;;;5059836;28;20079;-80
2023/01/25 09:15:34;;;;;;;;;;;3.30;99.90;;;;;;5089836;28;19928;-81
2023/01/25 09:18:00;;;;;;;;;;;3.40;99.90;;;;;;5067215;28;19925;-80
2023/01/25 09:20:27;;;;;;;;;;;3.40;99.90;;;;;;5052627;28;19928;-81
2023/01/25 09:22:55;;;;;;;;;;;1.90;99.90;;;;;;5052821;28;19943;-81
2023/01/25 09:25:21;;;;;;;;;;;3.50;99.90;;;;;;5073594;28;19929;-82
2023/01/25 09:27:49;;;;;;;;;;;3.50;99.90;;;;;;5075765;28;20015;-82
2023/01/25 09:30:16;;;;;;;;;;;3.40;99.90;;;;;;5073176;28;20315;-82
2023/01/25 09:32:44;;;;;;;;;;;3.40;99.90;;;;;;5073303;28;20001;-82
2023/01/25 09:35:12;;;;;;;;;;;3.40;99.90;;;;;;5090501;28;19928;-80
2023/01/25 09:37:38;;;;;;;;;;;3.40;99.90;;;;;;5072275;22;19928;-77
2023/01/25 09:40:06;;;;;;;;;;;3.40;99.90;;;;;;5134733;22;19929;-83
2023/01/25 09:42:40;;;;;;;;;;;3.50;99.90;;;;;;5052189;28;20450;-82
2023/01/25 09:45:31;;;;;;;;;;;3.60;99.90;;;;;;5054937;28;19925;-82
2023/01/25 09:48:03;;;;;;;;;;;3.60;99.90;;;;;;5028506;28;19975;-82
2023/01/25 09:50:35;;;;;;;;;;;3.60;99.90;;;;;;5053626;28;19929;-82
2023/01/25 09:53:11;;;;;;;;;;;3.60;99.90;;;;;;5056608;28;20372;-83
2023/01/25 09:55:39;;;;;;;;;;;3.60;99.90;;;;;;5058299;28;19928;-82
2023/01/25 09:58:12;;;;;;;;;;;3.60;99.90;;;;;;5053864;28;19929;-82
2023/01/25 10:00:42;;;;;;;;;;;3.70;99.90;;;;;;5075843;28;19935;-83
2023/01/25 10:03:13;;;;;;;;;;;3.70;99.90;;;;;;5054224;28;20003;-82
2023/01/25 10:05:43;;;;;;;;;;;3.70;99.90;;;;;;5053194;28;19935;-81
2023/01/25 10:08:14;;;;;;;;;;;3.70;99.90;;;;;;5052073;28;19928;-81
2023/01/25 10:10:45;;;;;;;;;;;3.60;99.90;;;;;;5049672;28;19936;-82
2023/01/25 10:13:12;;;;;;;;;;;3.60;99.90;;;;;;5053899;28;19978;-82
2023/01/25 10:15:40;;;;;;;;;;;3.70;99.90;;;;;;5055318;28;19925;-82
2023/01/25 10:18:14;;;;;;;;;;;3.70;99.90;;;;;;5052323;28;19924;-81
2023/01/25 10:20:44;;;;;;;;;;;3.70;99.90;;;;;;5053293;28;19928;-82
2023/01/25 10:23:29;;;;;;;;;;;3.70;99.90;;;;;;5056499;28;19936;-81
2023/01/25 10:25:57;;;;;;;;;;;3.60;99.90;;;;;;5060143;28;19925;-82
2023/01/25 10:28:29;;;;;;;;;;;3.60;99.90;;;;;;5051542;28;20019;-81
2023/01/25 10:30:58;;;;;;;;;;;3.70;99.90;;;;;;5049269;28;20388;-81
2023/01/25 10:33:27;;;;;;;;;;;3.60;99.90;;;;;;5053808;28;19925;-81
2023/01/25 10:35:56;;;;;;;;;;;3.50;99.90;;;;;;5052688;28;19974;-80
2023/01/25 10:38:26;;;;;;;;;;;3.60;99.90;;;;;;5034666;28;19928;-82
2023/01/25 10:40:55;;;;;;;;;;;3.60;99.90;;;;;;5052773;28;19933;-81
2023/01/25 10:43:22;;;;;;;;;;;3.60;99.90;;;;;;5052899;28;19974;-80
2023/01/25 10:45:49;;;;;;;;;;;3.60;99.90;;;;;;5046016;28;19929;-80
2023/01/25 10:48:19;;;;;;;;;;;3.60;99.90;;;;;;5050690;28;19925;-82
2023/01/25 10:50:47;;;;;;;;;;;3.60;99.90;;;;;;5053393;28;19925;-81
2023/01/25 10:53:24;;;;;;;;;;;3.70;99.90;;;;;;5053636;28;19975;-81
2023/01/25 10:56:06;;;;;;;;;;;3.70;99.90;;;;;;5050819;28;19936;-82
2023/01/25 10:58:35;;;;;;;;;;;3.80;99.90;;;;;;5052346;28;20415;-80
2023/01/25 11:01:03;;;;;;;;;;;3.70;99.90;;;;;;5053412;28;19963;-82
2023/01/25 11:03:37;;;;;;;;;;;3.70;99.90;;;;;;5054090;28;20415;-83
2023/01/25 11:06:04;;;;;;;;;;;3.70;99.90;;;;;;5053179;28;20435;-82
2023/01/25 11:08:37;;;;;;;;;;;3.70;99.90;;;;;;5053504;28;19982;-79
2023/01/25 11:11:15;;;;;;;;;;;3.60;99.90;;;;;;5053365;28;20369;-81
2023/01/25 11:13:42;;;;;;;;;;;3.70;99.90;;;;;;5054000;28;19928;-81
2023/01/25 11:16:18;;;;;;;;;;;3.70;99.90;;;;;;5053043;28;19929;-81
2023/01/25 11:18:50;;;;;;;;;;;3.70;99.90;;;;;;5032025;28;19929;-81
2023/01/25 11:21:20;;;;;;;;;;;3.60;99.90;;;;;;5033825;28;19929;-81
2023/01/25 11:23:59;;;;;;;;;;;3.60;99.90;;;;;;5034437;28;19979;-79
2023/01/25 11:26:26;;;;;;;;;;;3.60;99.90;;;;;;5053542;28;19929;-80
2023/01/25 11:29:06;;;;;;;;;;;3.60;99.90;;;;;;5038863;28;19939;-81
2023/01/25 11:31:33;;;;;;;;;;;3.60;99.90;;;;;;5054216;28;20654;-83
2023/01/25 11:34:00;;;;;;;;;;;3.70;99.90;;;;;;5055610;28;20027;-81
2023/01/25 11:36:31;;;;;;;;;;;4.10;99.90;;;;;;5054691;28;19933;-82
2023/01/25 11:39:05;;;;;;;;;;;3.70;99.90;;;;;;5051577;28;19933;-81
2023/01/25 11:41:36;;;;;;;;;;;3.80;99.90;;;;;;5053637;28;19929;-81
2023/01/25 11:44:11;;;;;;;;;;;3.70;99.90;;;;;;5054960;28;20488;-81
2023/01/25 11:46:43;;;;;;;;;;;3.70;99.90;;;;;;5052014;28;19939;-81
2023/01/25 11:49:17;;;;;;;;;;;5.00;99.90;;;;;;5051846;28;20034;-81
2023/01/25 11:51:49;;;;;;;;;;;3.70;99.90;;;;;;5052684;28;20144;-81
2023/01/25 11:54:29;;;;;;;;;;;3.70;99.90;;;;;;5045842;28;19929;-81
2023/01/25 11:56:58;;;;;;;;;;;3.60;99.90;;;;;;5046123;28;19929;-81
2023/01/25 11:59:35;;;;;;;;;;;3.70;99.90;;;;;;5051669;28;19925;-81
2023/01/25 12:02:11;;;;;;;;;;;3.70;99.90;;;;;;5056184;28;19925;-81
2023/01/25 12:04:47;;;;;;;;;;;3.70;99.90;;;;;;5057667;28;19979;-80
2023/01/25 12:07:16;;;;;;;;;;;3.70;99.90;;;;;;5058328;28;19929;-80
2023/01/25 12:09:55;;;;;;;;;;;3.60;99.90;;;;;;5057205;28;20617;-81
2023/01/25 12:12:25;;;;;;;;;;;3.60;99.90;;;;;;5065482;28;19932;-80
2023/01/25 12:15:03;;;;;;;;;;;3.60;99.90;;;;;;5055848;28;19940;-80
2023/01/25 12:17:36;;;;;;;;;;;3.60;99.90;;;;;;5052000;28;19973;-81
2023/01/25 12:20:13;;;;;;;;;;;3.50;99.90;;;;;;5054990;28;20442;-80
2023/01/25 12:22:55;;;;;;;;;;;3.60;99.90;;;;;;5053998;28;19999;-80
2023/01/25 12:25:35;;;;;;;;;;;3.70;99.90;;;;;;5054543;28;19929;-80
2023/01/25 12:28:09;;;;;;;;;;;3.70;99.90;;;;;;5068332;28;19984;-80
2023/01/25 12:30:40;;;;;;;;;;;3.70;99.90;;;;;;5070123;28;19973;-81
2023/01/25 12:33:10;;;;;;;;;;;3.70;99.90;;;;;;5053484;28;19925;-80
2023/01/25 12:35:39;;;;;;;;;;;3.70;99.90;;;;;;5054916;28;19979;-80
2023/01/25 12:38:09;;;;;;;;;;;3.70;99.90;;;;;;5053308;28;19947;-81
2023/01/25 12:40:45;;;;;;;;;;;3.70;99.90;;;;;;5052611;28;19925;-81
2023/01/25 12:43:14;;;;;;;;;;;3.70;99.90;;;;;;5054804;28;19986;-80
2023/01/25 12:45:44;;;;;;;;;;;3.60;99.90;;;;;;5054864;28;19925;-81
2023/01/25 12:48:13;;;;;;;;;;;3.50;99.90;;;;;;5071477;28;19929;-80
2023/01/25 12:50:43;;;;;;;;;;;3.60;99.90;;;;;;5055264;28;19950;-80
2023/01/25 12:53:18;;;;;;;;;;;3.60;99.90;;;;;;5053328;28;19989;-80
2023/01/25 12:55:47;;;;;;;;;;;3.60;99.90;;;;;;5054426;28;20380;-81
2023/01/25 12:58:18;;;;;;;;;;;3.70;99.90;;;;;;5047662;28;19925;-80
2023/01/25 13:00:49;;;;;;;;;;;3.60;99.90;;;;;;5052972;28;19998;-81
2023/01/25 13:03:20;;;;;;;;;;;3.60;99.90;;;;;;5056875;28;19928;-81
2023/01/25 13:05:51;;;;;;;;;;;3.60;99.90;;;;;;5053481;28;19982;-81
2023/01/25 13:08:22;;;;;;;;;;;3.50;99.90;;;;;;5057917;28;19932;-81
2023/01/25 13:10:52;;;;;;;;;;;3.50;99.90;;;;;;5051238;28;20457;-81
2023/01/25 13:13:24;;;;;;;;;;;3.40;99.90;;;;;;5061209;28;19994;-81
2023/01/25 13:15:52;;;;;;;;;;;3.40;99.90;;;;;;5054843;28;19928;-81
2023/01/25 13:18:38;;;;;;;;;;;3.40;99.90;;;;;;5054032;28;19924;-81
2023/01/25 13:21:10;;;;;;;;;;;3.40;99.90;;;;;;5054955;28;19929;-80
2023/01/25 13:23:42;;;;;;;;;;;3.40;99.90;;;;;;5056083;28;19928;-80
2023/01/25 13:26:28;;;;;;;;;;;3.40;99.90;;;;;;5053421;28;19955;-81
2023/01/25 13:28:58;;;;;;;;;;;3.40;99.90;;;;;;5067322;28;19936;-80
2023/01/25 13:31:47;;;;;;;;;;;3.40;99.90;;;;;;5052641;28;19936;-81
2023/01/25 13:34:36;;;;;;;;;;;3.40;99.90;;;;;;5050692;28;20372;-80
2023/01/25 13:37:03;;;;;;;;;;;3.20;99.90;;;;;;5048885;28;20695;-81
2023/01/25 13:39:43;;;;;;;;;;;3.20;99.90;;;;;;5051972;28;19978;-81
2023/01/25 13:42:19;;;;;;;;;;;3.30;99.90;;;;;;5051908;28;20006;-81
2023/01/25 13:44:49;;;;;;;;;;;3.30;99.90;;;;;;5052653;28;19995;-80
2023/01/25 13:47:18;;;;;;;;;;;3.30;99.90;;;;;;5052934;28;19924;-80
2023/01/25 13:49:48;;;;;;;;;;;3.30;99.90;;;;;;5055038;28;19932;-80
2023/01/25 13:52:16;;;;;;;;;;;3.30;99.90;;;;;;5052891;28;19929;-79
2023/01/25 13:54:45;;;;;;;;;;;3.30;99.90;;;;;;5051078;28;19983;-80
2023/01/25 13:57:14;;;;;;;;;;;3.20;99.90;;;;;;5056397;28;19925;-81
2023/01/25 13:59:41;;;;;;;;;;;3.30;99.90;;;;;;5054675;28;19928;-82
2023/01/25 14:02:16;;;;;;;;;;;3.30;99.90;;;;;;5055233;28;20412;-81
2023/01/25 14:04:44;;;;;;;;;;;3.30;99.90;;;;;;5056247;28;19925;-83
2023/01/25 14:07:13;;;;;;;;;;;3.20;99.90;;;;;;5055934;28;19936;-82
2023/01/25 14:09:41;;;;;;;;;;;3.20;99.90;;;;;;5052108;28;19972;-82
2023/01/25 14:12:10;;;;;;;;;;;3.10;99.90;;;;;;5054853;28;20150;-81
2023/01/25 14:14:38;;;;;;;;;;;3.10;99.90;;;;;;5055354;28;19925;-81
2023/01/25 14:17:13;;;;;;;;;;;3.20;99.90;;;;;;5054871;28;20396;-81
2023/01/25 14:19:43;;;;;;;;;;;3.10;99.90;;;;;;5056182;28;19933;-81
2023/01/25 14:22:11;;;;;;;;;;;3.10;99.90;;;;;;5064504;28;20019;-81
2023/01/25 14:24:38;;;;;;;;;;;3.10;99.90;;;;;;5056003;28;19929;-81
2023/01/25 14:27:05;;;;;;;;;;;3.10;99.90;;;;;;5054499;28;20617;-81
2023/01/25 14:29:33;;;;;;;;;;;3.30;99.90;;;;;;5055846;28;20332;-81
2023/01/25 14:32:00;;;;;;;;;;;3.10;99.90;;;;;;5052739;28;19929;-80
2023/01/25 14:34:27;;;;;;;;;;;3.10;99.90;;;;;;5053706;28;19928;-80
2023/01/25 14:37:07;;;;;;;;;;;3.10;99.90;;;;;;5056439;28;19929;-81
2023/01/25 14:39:34;;;;;;;;;;;3.10;99.90;;;;;;5058412;28;19925;-80
2023/01/25 14:42:03;;;;;;;;;;;3.10;99.90;;;;;;5059278;28;19959;-80
2023/01/25 14:44:30;;;;;;;;;;;3.20;99.90;;;;;;5064002;28;20351;-81